sensor_id;sensor_type;location;lat;lon;timestamp;pressure;altitude;pressure_sealevel;temperature
69420;BMP280;56612;52.030;113.524;2023-02-01T11:18:18;93947.38;;;-11.61
69420;BMP280;56612;52.030;113.524;2023-02-01T11:21:23;93945.53;;;-11.77
69420;BMP280;56612;52.030;113.524;2023-02-01T11:24:33;93947.84;;;-11.74
69420;BMP280;56612;52.030;113.524;2023-02-01T11:27:38;93940.13;;;-11.74
69420;BMP280;56612;52.030;113.524;2023-02-01T11:30:57;93941.75;;;-11.71
69420;BMP280;56612;52.030;113.524;2023-02-01T11:34:09;93943.63;;;-11.60
69420;BMP280;56612;52.030;113.524;2023-02-01T11:37:26;93957.19;;;-11.48
69420;BMP280;56612;52.030;113.524;2023-02-01T11:40:36;93947.59;;;-11.53
69420;BMP280;56612;52.030;113.524;2023-02-01T11:43:53;93947.13;;;-11.46
69420;BMP280;56612;52.030;113.524;2023-02-01T11:47:19;93949.22;;;-11.45
69420;BMP280;56612;52.030;113.524;2023-02-01T11:54:30;93943.16;;;-11.47
69420;BMP280;56612;52.030;113.524;2023-02-01T12:06:56;93939.88;;;-11.70
69420;BMP280;56612;52.030;113.524;2023-02-01T12:10:28;93939.69;;;-11.78
69420;BMP280;56612;52.030;113.524;2023-02-01T12:30:26;93943.88;;;-12.31
69420;BMP280;56612;52.030;113.524;2023-02-01T12:37:29;93943.78;;;-12.65
69420;BMP280;56612;52.030;113.524;2023-02-01T12:47:52;93933.38;;;-12.87
69420;BMP280;56612;52.030;113.524;2023-02-01T12:51:01;93926.56;;;-13.01
69420;BMP280;56612;52.030;113.524;2023-02-01T12:54:18;93933.81;;;-12.94
69420;BMP280;56612;52.030;113.524;2023-02-01T12:57:38;93929.84;;;-12.95
69420;BMP280;56612;52.030;113.524;2023-02-01T13:01:33;93931.72;;;-12.96
69420;BMP280;56612;52.030;113.524;2023-02-01T13:04:36;93932.25;;;-12.86
69420;BMP280;56612;52.030;113.524;2023-02-01T13:11:04;93924.47;;;-12.97
69420;BMP280;56612;52.030;113.524;2023-02-01T13:17:32;93918.44;;;-12.89
69420;BMP280;56612;52.030;113.524;2023-02-01T13:21:02;93926.84;;;-12.88
69420;BMP280;56612;52.030;113.524;2023-02-01T13:24:22;93919.38;;;-12.92
69420;BMP280;56612;52.030;113.524;2023-02-01T13:27:29;93917.94;;;-12.98
69420;BMP280;56612;52.030;113.524;2023-02-01T13:47:57;93917.09;;;-14.01
69420;BMP280;56612;52.030;113.524;2023-02-01T13:51:05;93915.84;;;-14.12
69420;BMP280;56612;52.030;113.524;2023-02-01T13:57:38;93912.88;;;-14.30
69420;BMP280;56612;52.030;113.524;2023-02-01T14:00:43;93921.28;;;-14.30
69420;BMP280;56612;52.030;113.524;2023-02-01T14:06:56;93916.59;;;-14.57
69420;BMP280;56612;52.030;113.524;2023-02-01T14:13:41;93920.28;;;-14.38
69420;BMP280;56612;52.030;113.524;2023-02-01T14:27:18;93911.47;;;-14.78
69420;BMP280;56612;52.030;113.524;2023-02-01T14:30:20;93908.22;;;-14.99
69420;BMP280;56612;52.030;113.524;2023-02-01T14:33:26;93910.53;;;-15.36
69420;BMP280;56612;52.030;113.524;2023-02-01T14:36:52;93906.53;;;-15.43
69420;BMP280;56612;52.030;113.524;2023-02-01T14:40:00;93905.72;;;-15.34
69420;BMP280;56612;52.030;113.524;2023-02-01T14:43:08;93903.97;;;-15.43
69420;BMP280;56612;52.030;113.524;2023-02-01T14:53:44;93896.00;;;-15.24
69420;BMP280;56612;52.030;113.524;2023-02-01T14:56:49;93901.91;;;-15.39
69420;BMP280;56612;52.030;113.524;2023-02-01T15:00:06;93898.50;;;-15.50
69420;BMP280;56612;52.030;113.524;2023-02-01T15:03:38;93888.19;;;-15.36
69420;BMP280;56612;52.030;113.524;2023-02-01T15:06:48;93893.31;;;-15.36
69420;BMP280;56612;52.030;113.524;2023-02-01T15:09:56;93890.59;;;-15.47
69420;BMP280;56612;52.030;113.524;2023-02-01T15:13:03;93895.72;;;-15.47
69420;BMP280;56612;52.030;113.524;2023-02-01T15:16:14;93896.38;;;-15.52
69420;BMP280;56612;52.030;113.524;2023-02-01T15:19:17;93889.81;;;-15.38
69420;BMP280;56612;52.030;113.524;2023-02-01T15:22:24;93889.06;;;-15.24
69420;BMP280;56612;52.030;113.524;2023-02-01T15:25:38;93877.94;;;-15.36
69420;BMP280;56612;52.030;113.524;2023-02-01T15:28:44;93884.78;;;-15.47
69420;BMP280;56612;52.030;113.524;2023-02-01T15:31:50;93876.94;;;-15.44
69420;BMP280;56612;52.030;113.524;2023-02-01T15:34:55;93888.50;;;-15.48
69420;BMP280;56612;52.030;113.524;2023-02-01T15:41:30;93879.28;;;-15.61
69420;BMP280;56612;52.030;113.524;2023-02-01T15:47:40;93873.34;;;-15.67
69420;BMP280;56612;52.030;113.524;2023-02-01T15:50:49;93875.59;;;-15.74
69420;BMP280;56612;52.030;113.524;2023-02-01T15:53:56;93876.03;;;-15.76
69420;BMP280;56612;52.030;113.524;2023-02-01T15:57:02;93865.38;;;-15.89
69420;BMP280;56612;52.030;113.524;2023-02-01T16:00:18;93875.09;;;-15.93
69420;BMP280;56612;52.030;113.524;2023-02-01T16:03:40;93874.38;;;-15.94
69420;BMP280;56612;52.030;113.524;2023-02-01T16:06:50;93877.31;;;-16.16
69420;BMP280;56612;52.030;113.524;2023-02-01T16:09:59;93874.38;;;-16.23
69420;BMP280;56612;52.030;113.524;2023-02-01T16:13:10;93866.59;;;-16.29
69420;BMP280;56612;52.030;113.524;2023-02-01T16:16:13;93865.03;;;-16.12
69420;BMP280;56612;52.030;113.524;2023-02-01T16:19:17;93866.44;;;-16.11
69420;BMP280;56612;52.030;113.524;2023-02-01T16:22:23;93865.53;;;-16.08
69420;BMP280;56612;52.030;113.524;2023-02-01T16:25:26;93863.00;;;-15.93
69420;BMP280;56612;52.030;113.524;2023-02-01T16:28:30;93863.53;;;-16.03
69420;BMP280;56612;52.030;113.524;2023-02-01T16:31:38;93869.97;;;-16.08
69420;BMP280;56612;52.030;113.524;2023-02-01T16:34:42;93865.81;;;-16.20
69420;BMP280;56612;52.030;113.524;2023-02-01T16:37:46;93859.56;;;-16.34
69420;BMP280;56612;52.030;113.524;2023-02-01T16:40:50;93856.31;;;-16.35
69420;BMP280;56612;52.030;113.524;2023-02-01T16:43:54;93863.09;;;-16.32
69420;BMP280;56612;52.030;113.524;2023-02-01T16:46:58;93857.44;;;-16.50
69420;BMP280;56612;52.030;113.524;2023-02-01T16:50:01;93856.53;;;-16.77
69420;BMP280;56612;52.030;113.524;2023-02-01T16:53:26;93854.31;;;-16.84
69420;BMP280;56612;52.030;113.524;2023-02-01T16:56:38;93862.91;;;-16.96
69420;BMP280;56612;52.030;113.524;2023-02-01T16:59:44;93863.94;;;-16.79
69420;BMP280;56612;52.030;113.524;2023-02-01T17:02:48;93852.91;;;-16.85
69420;BMP280;56612;52.030;113.524;2023-02-01T17:05:53;93845.91;;;-16.99
69420;BMP280;56612;52.030;113.524;2023-02-01T17:08:58;93844.34;;;-17.21
69420;BMP280;56612;52.030;113.524;2023-02-01T17:12:02;93845.97;;;-17.33
69420;BMP280;56612;52.030;113.524;2023-02-01T17:15:10;93853.81;;;-17.45
69420;BMP280;56612;52.030;113.524;2023-02-01T17:18:16;93842.38;;;-17.50
69420;BMP280;56612;52.030;113.524;2023-02-01T17:21:20;93855.31;;;-17.54
69420;BMP280;56612;52.030;113.524;2023-02-01T17:24:27;93854.00;;;-17.25
69420;BMP280;56612;52.030;113.524;2023-02-01T17:27:48;93861.97;;;-17.56
69420;BMP280;56612;52.030;113.524;2023-02-01T17:30:52;93856.50;;;-17.73
69420;BMP280;56612;52.030;113.524;2023-02-01T17:33:59;93848.56;;;-17.75
69420;BMP280;56612;52.030;113.524;2023-02-01T17:37:05;93841.31;;;-17.67
69420;BMP280;56612;52.030;113.524;2023-02-01T17:40:11;93851.19;;;-17.84
69420;BMP280;56612;52.030;113.524;2023-02-01T17:43:23;93849.50;;;-17.97
69420;BMP280;56612;52.030;113.524;2023-02-01T17:46:27;93853.19;;;-17.98
69420;BMP280;56612;52.030;113.524;2023-02-01T17:49:30;93853.75;;;-17.93
69420;BMP280;56612;52.030;113.524;2023-02-01T17:52:33;93853.28;;;-17.83
69420;BMP280;56612;52.030;113.524;2023-02-01T17:55:41;93854.34;;;-17.65
69420;BMP280;56612;52.030;113.524;2023-02-01T17:58:45;93844.03;;;-17.71
69420;BMP280;56612;52.030;113.524;2023-02-01T18:01:48;93843.72;;;-17.64
69420;BMP280;56612;52.030;113.524;2023-02-01T18:04:51;93847.97;;;-17.61
69420;BMP280;56612;52.030;113.524;2023-02-01T18:07:55;93855.69;;;-17.46
69420;BMP280;56612;52.030;113.524;2023-02-01T18:11:00;93849.88;;;-17.46
69420;BMP280;56612;52.030;113.524;2023-02-01T18:14:03;93854.69;;;-17.49
69420;BMP280;56612;52.030;113.524;2023-02-01T18:17:09;93855.34;;;-17.63
69420;BMP280;56612;52.030;113.524;2023-02-01T18:20:16;93849.59;;;-17.82
69420;BMP280;56612;52.030;113.524;2023-02-01T18:23:21;93854.78;;;-18.09
69420;BMP280;56612;52.030;113.524;2023-02-01T18:26:24;93843.31;;;-18.14
69420;BMP280;56612;52.030;113.524;2023-02-01T18:29:28;93851.19;;;-17.93
69420;BMP280;56612;52.030;113.524;2023-02-01T18:32:32;93841.53;;;-17.89
69420;BMP280;56612;52.030;113.524;2023-02-01T18:35:36;93842.97;;;-17.98
69420;BMP280;56612;52.030;113.524;2023-02-01T18:38:42;93853.50;;;-18.05
69420;BMP280;56612;52.030;113.524;2023-02-01T18:41:48;93840.44;;;-18.07
69420;BMP280;56612;52.030;113.524;2023-02-01T18:44:53;93838.22;;;-18.05
69420;BMP280;56612;52.030;113.524;2023-02-01T18:47:58;93838.31;;;-17.99
69420;BMP280;56612;52.030;113.524;2023-02-01T18:51:02;93840.88;;;-17.99
69420;BMP280;56612;52.030;113.524;2023-02-01T18:54:05;93826.72;;;-18.09
69420;BMP280;56612;52.030;113.524;2023-02-01T18:57:08;93831.28;;;-18.13
69420;BMP280;56612;52.030;113.524;2023-02-01T19:00:12;93825.59;;;-18.08
69420;BMP280;56612;52.030;113.524;2023-02-01T19:03:16;93825.47;;;-18.14
69420;BMP280;56612;52.030;113.524;2023-02-01T19:06:20;93828.75;;;-18.23
69420;BMP280;56612;52.030;113.524;2023-02-01T19:09:23;93827.78;;;-18.34
69420;BMP280;56612;52.030;113.524;2023-02-01T19:12:27;93828.63;;;-18.28
69420;BMP280;56612;52.030;113.524;2023-02-01T19:15:30;93814.75;;;-18.27
69420;BMP280;56612;52.030;113.524;2023-02-01T19:18:36;93828.75;;;-18.23
69420;BMP280;56612;52.030;113.524;2023-02-01T19:21:40;93818.09;;;-18.12
69420;BMP280;56612;52.030;113.524;2023-02-01T19:24:43;93816.09;;;-18.17
69420;BMP280;56612;52.030;113.524;2023-02-01T19:27:48;93816.00;;;-18.23
69420;BMP280;56612;52.030;113.524;2023-02-01T19:31:02;93812.31;;;-18.31
69420;BMP280;56612;52.030;113.524;2023-02-01T19:34:06;93819.28;;;-18.31
69420;BMP280;56612;52.030;113.524;2023-02-01T19:37:10;93804.72;;;-18.49
69420;BMP280;56612;52.030;113.524;2023-02-01T19:40:18;93812.53;;;-18.53
69420;BMP280;56612;52.030;113.524;2023-02-01T19:43:24;93809.69;;;-18.55
69420;BMP280;56612;52.030;113.524;2023-02-01T19:46:27;93814.38;;;-18.44
69420;BMP280;56612;52.030;113.524;2023-02-01T19:49:30;93816.91;;;-18.35
69420;BMP280;56612;52.030;113.524;2023-02-01T19:52:34;93812.78;;;-18.41
69420;BMP280;56612;52.030;113.524;2023-02-01T19:55:43;93813.91;;;-18.42
69420;BMP280;56612;52.030;113.524;2023-02-01T19:58:47;93807.41;;;-18.34
69420;BMP280;56612;52.030;113.524;2023-02-01T20:01:53;93810.22;;;-18.32
69420;BMP280;56612;52.030;113.524;2023-02-01T20:04:58;93808.38;;;-18.41
69420;BMP280;56612;52.030;113.524;2023-02-01T20:08:01;93799.59;;;-18.40
69420;BMP280;56612;52.030;113.524;2023-02-01T20:11:07;93806.44;;;-18.55
69420;BMP280;56612;52.030;113.524;2023-02-01T20:14:12;93812.97;;;-18.73
69420;BMP280;56612;52.030;113.524;2023-02-01T20:17:16;93806.59;;;-18.68
69420;BMP280;56612;52.030;113.524;2023-02-01T20:20:21;93801.47;;;-18.59
69420;BMP280;56612;52.030;113.524;2023-02-01T20:23:27;93790.75;;;-18.72
69420;BMP280;56612;52.030;113.524;2023-02-01T20:26:30;93796.97;;;-18.64
69420;BMP280;56612;52.030;113.524;2023-02-01T20:29:33;93786.94;;;-18.58
69420;BMP280;56612;52.030;113.524;2023-02-01T20:32:37;93794.59;;;-18.77
69420;BMP280;56612;52.030;113.524;2023-02-01T20:35:43;93797.13;;;-18.86
69420;BMP280;56612;52.030;113.524;2023-02-01T20:38:47;93794.16;;;-18.84
69420;BMP280;56612;52.030;113.524;2023-02-01T20:41:50;93799.25;;;-18.84
69420;BMP280;56612;52.030;113.524;2023-02-01T20:44:53;93796.44;;;-18.86
69420;BMP280;56612;52.030;113.524;2023-02-01T20:47:56;93801.09;;;-19.03
69420;BMP280;56612;52.030;113.524;2023-02-01T20:50:59;93803.06;;;-18.98
69420;BMP280;56612;52.030;113.524;2023-02-01T20:54:05;93802.94;;;-19.04
69420;BMP280;56612;52.030;113.524;2023-02-01T20:57:10;93796.44;;;-19.05
69420;BMP280;56612;52.030;113.524;2023-02-01T21:00:16;93806.31;;;-18.98
69420;BMP280;56612;52.030;113.524;2023-02-01T21:03:20;93805.47;;;-19.04
69420;BMP280;56612;52.030;113.524;2023-02-01T21:06:27;93806.31;;;-19.07
69420;BMP280;56612;52.030;113.524;2023-02-01T21:09:30;93805.59;;;-19.17
69420;BMP280;56612;52.030;113.524;2023-02-01T21:12:34;93801.06;;;-19.22
69420;BMP280;56612;52.030;113.524;2023-02-01T21:15:37;93790.19;;;-19.22
69420;BMP280;56612;52.030;113.524;2023-02-01T21:18:49;93789.19;;;-19.25
69420;BMP280;56612;52.030;113.524;2023-02-01T21:21:52;93789.06;;;-19.12
69420;BMP280;56612;52.030;113.524;2023-02-01T21:24:56;93788.63;;;-19.10
69420;BMP280;56612;52.030;113.524;2023-02-01T21:28:01;93784.81;;;-19.15
69420;BMP280;56612;52.030;113.524;2023-02-01T21:31:05;93778.31;;;-19.16
69420;BMP280;56612;52.030;113.524;2023-02-01T21:34:10;93778.88;;;-19.21
69420;BMP280;56612;52.030;113.524;2023-02-01T21:37:13;93773.88;;;-19.43
69420;BMP280;56612;52.030;113.524;2023-02-01T21:40:17;93778.84;;;-19.58
69420;BMP280;56612;52.030;113.524;2023-02-01T21:43:23;93777.00;;;-19.57
69420;BMP280;56612;52.030;113.524;2023-02-01T21:46:27;93773.84;;;-19.80
69420;BMP280;56612;52.030;113.524;2023-02-01T21:49:30;93778.22;;;-19.80
69420;BMP280;56612;52.030;113.524;2023-02-01T21:52:37;93770.84;;;-19.78
69420;BMP280;56612;52.030;113.524;2023-02-01T21:55:41;93775.25;;;-19.79
69420;BMP280;56612;52.030;113.524;2023-02-01T21:58:49;93761.25;;;-19.84
69420;BMP280;56612;52.030;113.524;2023-02-01T22:01:56;93756.47;;;-19.81
69420;BMP280;56612;52.030;113.524;2023-02-01T22:04:59;93755.72;;;-19.82
69420;BMP280;56612;52.030;113.524;2023-02-01T22:08:03;93756.47;;;-19.81
69420;BMP280;56612;52.030;113.524;2023-02-01T22:11:06;93749.94;;;-19.83
69420;BMP280;56612;52.030;113.524;2023-02-01T22:14:09;93733.81;;;-19.89
69420;BMP280;56612;52.030;113.524;2023-02-01T22:17:16;93741.31;;;-19.85
69420;BMP280;56612;52.030;113.524;2023-02-01T22:20:19;93739.72;;;-20.01
69420;BMP280;56612;52.030;113.524;2023-02-01T22:23:23;93755.41;;;-20.02
69420;BMP280;56612;52.030;113.524;2023-02-01T22:26:30;93751.59;;;-19.98
69420;BMP280;56612;52.030;113.524;2023-02-01T22:29:33;93754.16;;;-19.89
69420;BMP280;56612;52.030;113.524;2023-02-01T22:32:37;93747.84;;;-19.84
69420;BMP280;56612;52.030;113.524;2023-02-01T22:35:41;93751.06;;;-19.93
69420;BMP280;56612;52.030;113.524;2023-02-01T22:38:46;93746.69;;;-19.92
69420;BMP280;56612;52.030;113.524;2023-02-01T22:41:50;93742.59;;;-19.90
69420;BMP280;56612;52.030;113.524;2023-02-01T22:44:53;93741.88;;;-19.90
69420;BMP280;56612;52.030;113.524;2023-02-01T22:47:57;93736.63;;;-19.87
69420;BMP280;56612;52.030;113.524;2023-02-01T22:51:01;93735.22;;;-19.88
69420;BMP280;56612;52.030;113.524;2023-02-01T22:54:05;93736.66;;;-19.77
69420;BMP280;56612;52.030;113.524;2023-02-01T22:57:10;93736.66;;;-19.77
69420;BMP280;56612;52.030;113.524;2023-02-01T23:00:14;93728.19;;;-19.84
69420;BMP280;56612;52.030;113.524;2023-02-01T23:03:17;93734.25;;;-19.90
69420;BMP280;56612;52.030;113.524;2023-02-01T23:06:21;93730.81;;;-19.96
69420;BMP280;56612;52.030;113.524;2023-02-01T23:09:24;93743.88;;;-19.94
69420;BMP280;56612;52.030;113.524;2023-02-01T23:12:28;93735.81;;;-19.93
69420;BMP280;56612;52.030;113.524;2023-02-01T23:15:31;93743.25;;;-19.98
69420;BMP280;56612;52.030;113.524;2023-02-01T23:18:35;93745.38;;;-19.97
69420;BMP280;56612;52.030;113.524;2023-02-01T23:21:39;93740.56;;;-20.04
69420;BMP280;56612;52.030;113.524;2023-02-01T23:24:43;93737.25;;;-20.23
69420;BMP280;56612;52.030;113.524;2023-02-01T23:27:46;93742.66;;;-20.12
69420;BMP280;56612;52.030;113.524;2023-02-01T23:30:50;93742.25;;;-20.10
69420;BMP280;56612;52.030;113.524;2023-02-01T23:33:55;93744.31;;;-20.18
69420;BMP280;56612;52.030;113.524;2023-02-01T23:37:01;93731.81;;;-20.12
69420;BMP280;56612;52.030;113.524;2023-02-01T23:40:05;93737.28;;;-20.14
69420;BMP280;56612;52.030;113.524;2023-02-01T23:43:09;93734.38;;;-20.03
69420;BMP280;56612;52.030;113.524;2023-02-01T23:46:40;93738.34;;;-19.93
69420;BMP280;56612;52.030;113.524;2023-02-01T23:49:49;93737.19;;;-20.01
69420;BMP280;56612;52.030;113.524;2023-02-01T23:52:52;93738.19;;;-19.98
69420;BMP280;56612;52.030;113.524;2023-02-01T23:55:57;93742.88;;;-19.88
69420;BMP280;56612;52.030;113.524;2023-02-01T23:59:03;93747.91;;;-19.97
